Time;durP1;ratioP1;P1;durP2;ratioP2;P2;SDS_P1;SDS_P2;PMS_P1;PMS_P2;Temp;Humidity;BMP_temperature;BMP_pressure;BME280_temperature;BME280_humidity;BME280_pressure;Samples;Min_cycle;Max_cycle;Signal;HPM_P1;HPM_P2
2022/09/18 00:00:44;;;;;;;6.88;4.18;;;;;;;10.99;100.00;100844.06;4955297;29;20157;-77
2022/09/18 00:03:12;;;;;;;9.27;4.18;;;;;;;11.01;100.00;100851.75;4959627;28;20062;-79
2022/09/18 00:05:39;;;;;;;10.23;4.35;;;;;;;11.01;100.00;100857.00;4963341;28;20128;-79
2022/09/18 00:08:06;;;;;;;8.82;4.20;;;;;;;10.97;100.00;100854.69;4962455;28;20079;-78
2022/09/18 00:10:33;;;;;;;8.48;4.10;;;;;;;10.96;100.00;100845.19;4941851;28;20052;-78
2022/09/18 00:13:00;;;;;;;7.20;4.07;;;;;;;10.94;100.00;100841.88;4939058;29;20135;-77
2022/09/18 00:15:26;;;;;;;15.07;4.00;;;;;;;10.94;100.00;100849.75;4950515;29;20429;-78
2022/09/18 00:17:53;;;;;;;9.93;4.40;;;;;;;10.96;100.00;100847.78;4964240;28;20119;-78
2022/09/18 00:20:21;;;;;;;11.95;4.03;;;;;;;10.95;100.00;100851.38;4962932;28;20082;-78
2022/09/18 00:22:47;;;;;;;7.63;3.45;;;;;;;10.93;100.00;100853.34;4960405;28;20074;-79
2022/09/18 00:25:14;;;;;;;14.07;4.32;;;;;;;10.92;100.00;100851.69;4969155;28;20122;-79
2022/09/18 00:27:41;;;;;;;12.13;3.83;;;;;;;10.91;100.00;100847.44;4967666;28;20114;-80
2022/09/18 00:30:09;;;;;;;9.80;4.25;;;;;;;10.87;100.00;100851.31;4961584;28;20054;-80
2022/09/18 00:32:36;;;;;;;11.82;3.95;;;;;;;10.83;100.00;100850.00;4949215;29;20090;-79
2022/09/18 00:35:03;;;;;;;8.55;4.35;;;;;;;10.88;100.00;100858.22;4948758;29;20111;-80
2022/09/18 00:37:31;;;;;;;7.88;3.90;;;;;;;10.90;100.00;100847.59;4951012;29;20075;-80
2022/09/18 00:39:57;;;;;;;13.95;4.25;;;;;;;10.84;100.00;100846.41;4949969;29;20075;-80
2022/09/18 00:42:24;;;;;;;10.07;4.20;;;;;;;10.89;100.00;100848.56;4951417;29;20288;-80
2022/09/18 00:44:51;;;;;;;10.77;4.53;;;;;;;10.86;100.00;100847.09;4951861;29;20044;-79
2022/09/18 00:47:27;;;;;;;9.77;4.80;;;;;;;10.85;100.00;100842.84;4954308;29;20079;-80
2022/09/18 00:49:59;;;;;;;10.45;4.15;;;;;;;10.86;100.00;100836.63;4953638;29;20064;-79
2022/09/18 00:52:27;;;;;;;;;;;;;;;10.89;100.00;100854.63;4955550;29;20052;-80
2022/09/18 00:55:00;;;;;;;10.75;4.80;;;;;;;10.91;100.00;100852.66;4953582;29;19922;-80
2022/09/18 00:57:28;;;;;;;;;;;;;;;10.91;100.00;100855.28;4955080;29;20086;-79
2022/09/18 00:59:55;;;;;;;8.15;4.32;;;;;;;10.92;100.00;100850.88;4967577;29;19928;-79
2022/09/18 01:02:22;;;;;;;9.85;5.03;;;;;;;10.90;100.00;100845.78;4953513;29;20079;-81
2022/09/18 01:04:50;;;;;;;11.13;3.90;;;;;;;10.90;100.00;100851.03;4948714;29;20115;-80
2022/09/18 01:07:28;;;;;;;8.18;3.80;;;;;;;10.87;100.00;100851.31;4948381;29;20044;-81
2022/09/18 01:10:09;;;;;;;6.18;3.50;;;;;;;10.85;100.00;100855.09;4965374;28;20426;-81
2022/09/18 01:12:43;;;;;;;9.73;3.85;;;;;;;10.87;100.00;100840.84;4965257;28;20051;-81
2022/09/18 01:15:17;;;;;;;11.18;4.22;;;;;;;10.87;100.00;100840.06;4965400;28;20119;-81
2022/09/18 01:17:52;;;;;;;8.68;4.13;;;;;;;10.89;100.00;100851.19;4947427;29;20123;-81
2022/09/18 01:20:51;;;;;;;9.35;5.55;;;;;;;10.85;100.00;100848.06;4947523;29;20079;-81
2022/09/18 01:23:46;;;;;;;8.57;5.15;;;;;;;10.87;100.00;100861.78;4946954;29;20104;-80
2022/09/18 01:26:29;;;;;;;9.40;4.20;;;;;;;10.89;100.00;100859.84;4954912;29;20044;-82
2022/09/18 01:29:01;;;;;;;13.75;4.68;;;;;;;10.90;100.00;100865.91;4958183;29;20047;-82
2022/09/18 01:31:32;;;;;;;9.97;4.40;;;;;;;10.94;100.00;100862.84;4969237;29;20074;-80
2022/09/18 01:34:04;;;;;;;11.40;4.43;;;;;;;10.96;100.00;100866.13;4977620;28;20058;-80
2022/09/18 01:36:36;;;;;;;6.00;3.80;;;;;;;10.92;100.00;100870.03;4977176;28;20069;-79
2022/09/18 01:39:17;;;;;;;8.45;4.00;;;;;;;10.96;100.00;100873.97;4975976;28;20085;-80
2022/09/18 01:41:49;;;;;;;8.93;4.47;;;;;;;10.93;100.00;100858.56;4978844;28;20099;-81
2022/09/18 01:44:21;;;;;;;8.00;3.60;;;;;;;10.94;100.00;100854.16;4976171;28;20059;-81
2022/09/18 01:46:49;;;;;;;5.97;3.60;;;;;;;10.95;100.00;100864.47;4969933;28;20055;-81
2022/09/18 01:49:20;;;;;;;7.80;3.50;;;;;;;10.91;100.00;100863.13;4967090;28;20546;-80
2022/09/18 01:51:50;;;;;;;10.52;3.47;;;;;;;10.88;100.00;100852.97;4973324;28;20058;-81
2022/09/18 01:54:21;;;;;;;6.72;3.30;;;;;;;10.94;100.00;100854.97;4967212;28;20138;-81
2022/09/18 01:56:52;;;;;;;6.55;3.20;;;;;;;10.90;100.00;100853.63;4966564;28;20102;-80
2022/09/18 01:59:27;;;;;;;5.35;3.17;;;;;;;10.93;100.00;100849.91;4950868;29;20094;-81
2022/09/18 02:01:57;;;;;;;5.90;2.95;;;;;;;10.88;100.00;100850.34;4950081;29;20467;-79
2022/09/18 02:04:26;;;;;;;7.38;3.13;;;;;;;10.83;100.00;100839.53;4943761;29;20062;-79
2022/09/18 02:06:59;;;;;;;11.10;3.35;;;;;;;10.88;100.00;100839.88;4941991;29;20142;-79
2022/09/18 02:09:26;;;;;;;8.40;3.80;;;;;;;10.90;100.00;100835.31;4954567;29;20127;-79
2022/09/18 02:11:55;;;;;;;7.13;3.70;;;;;;;10.95;100.00;100848.78;4960702;28;20075;-78
2022/09/18 02:14:27;;;;;;;8.65;4.80;;;;;;;10.95;100.00;100843.53;4960233;28;20047;-79
2022/09/18 02:16:57;;;;;;;8.87;4.60;;;;;;;10.94;100.00;100841.88;4961986;28;20074;-79
2022/09/18 02:19:30;;;;;;;10.85;4.68;;;;;;;10.92;100.00;100843.00;4963113;28;20217;-80
2022/09/18 02:21:59;;;;;;;11.48;5.60;;;;;;;10.91;100.00;100851.84;4963030;28;20107;-79
2022/09/18 02:24:32;;;;;;;13.68;6.22;;;;;;;10.94;100.00;100843.69;4963403;28;20146;-79
2022/09/18 02:29:50;;;;;;;12.25;5.63;;;;;;;10.92;100.00;100854.31;5001503;28;20104;-81
2022/09/18 02:32:19;;;;;;;10.80;5.80;;;;;;;10.79;100.00;100827.72;5004963;28;20069;-81
2022/09/18 02:35:04;;;;;;;11.57;6.10;;;;;;;10.78;100.00;100836.56;5004922;28;20495;-80
2022/09/18 02:38:21;;;;;;;11.75;5.90;;;;;;;10.87;100.00;100842.69;5004512;28;20498;-81
2022/09/18 02:41:10;;;;;;;9.48;5.65;;;;;;;10.91;100.00;100852.66;4985577;28;20058;-81
2022/09/18 02:43:47;;;;;;;10.65;5.55;;;;;;;10.88;100.00;100845.13;4986447;28;20054;-81
2022/09/18 02:46:45;;;;;;;7.68;5.45;;;;;;;10.87;100.00;100855.78;4986188;28;20046;-81
2022/09/18 02:49:29;;;;;;;11.77;6.15;;;;;;;10.83;100.00;100838.72;4983576;28;20110;-82
2022/09/18 02:52:04;;;;;;;9.40;6.38;;;;;;;10.72;100.00;100826.69;4984373;28;20083;-82
2022/09/18 02:54:42;;;;;;;9.05;6.40;;;;;;;10.78;100.00;100847.03;4983536;28;20054;-82
2022/09/18 02:57:18;;;;;;;11.02;5.72;;;;;;;10.60;100.00;100833.94;4999724;28;20062;-80
2022/09/18 02:59:49;;;;;;;8.73;6.05;;;;;;;10.70;100.00;100839.09;5003316;28;20505;-81
2022/09/18 03:02:21;;;;;;;10.18;6.43;;;;;;;10.60;100.00;100823.47;5002271;28;20046;-82
2022/09/18 03:05:23;;;;;;;13.82;5.95;;;;;;;10.65;100.00;100846.59;5003267;28;20046;-81
2022/09/18 03:07:50;;;;;;;12.15;6.88;;;;;;;10.55;100.00;100812.66;5002211;28;20058;-79
2022/09/18 03:10:17;;;;;;;15.65;6.43;;;;;;;10.67;100.00;100831.56;5002988;28;20097;-79
2022/09/18 03:12:44;;;;;;;22.90;6.57;;;;;;;10.59;100.00;100818.41;5001534;28;20050;-81
2022/09/18 03:15:11;;;;;;;11.40;6.15;;;;;;;10.68;100.00;100829.75;5003147;28;20058;-81
2022/09/18 03:17:39;;;;;;;13.43;7.22;;;;;;;10.71;100.00;100839.94;4980843;28;20057;-80
2022/09/18 03:20:06;;;;;;;10.30;6.53;;;;;;;10.70;100.00;100833.88;4981889;28;20138;-81
2022/09/18 03:22:33;;;;;;;13.68;7.55;;;;;;;10.71;100.00;100834.69;4980961;28;20053;-80
2022/09/18 03:25:00;;;;;;;15.23;8.57;;;;;;;10.70;100.00;100830.44;4980134;28;20109;-81
2022/09/18 03:27:26;;;;;;;14.88;8.13;;;;;;;10.65;100.00;100830.88;4984425;28;20118;-81
2022/09/18 03:29:53;;;;;;;19.27;7.90;;;;;;;10.71;100.00;100825.06;4980969;28;20481;-80
2022/09/18 03:32:19;;;;;;;11.52;6.93;;;;;;;10.68;100.00;100830.59;4981250;28;20138;-81
2022/09/18 03:34:47;;;;;;;17.23;7.95;;;;;;;10.68;100.00;100832.38;4981065;28;20114;-81
2022/09/18 03:37:14;;;;;;;13.75;7.60;;;;;;;10.69;100.00;100834.84;4982033;28;20055;-80
2022/09/18 03:39:43;;;;;;;13.30;7.45;;;;;;;10.67;100.00;100834.16;4982806;28;20085;-81
2022/09/18 03:42:10;;;;;;;13.65;6.78;;;;;;;10.65;100.00;100836.13;4982648;28;20137;-79
2022/09/18 03:44:37;;;;;;;12.18;6.22;;;;;;;10.67;100.00;100833.34;4982255;28;20445;-79
2022/09/18 03:47:03;;;;;;;9.48;4.70;;;;;;;10.62;100.00;100823.34;4995060;28;20051;-80
2022/09/18 03:49:30;;;;;;;8.80;4.63;;;;;;;10.69;100.00;100842.69;4991943;28;20481;-79
2022/09/18 03:51:58;;;;;;;8.93;4.97;;;;;;;10.73;100.00;100838.81;4984406;28;20698;-81
2022/09/18 03:54:25;;;;;;;9.50;5.47;;;;;;;10.71;100.00;100832.06;4985896;28;20062;-81
2022/09/18 03:56:51;;;;;;;9.38;5.30;;;;;;;10.71;100.00;100845.16;4985939;28;20082;-81
2022/09/18 03:59:18;;;;;;;12.20;5.30;;;;;;;10.70;100.00;100836.50;4991525;28;20063;-80
2022/09/18 04:01:44;;;;;;;9.13;4.63;;;;;;;10.69;100.00;100834.84;5000994;28;20077;-80
2022/09/18 04:04:12;;;;;;;9.05;4.43;;;;;;;10.67;100.00;100836.78;5007834;28;20134;-80
2022/09/18 04:06:38;;;;;;;8.32;3.70;;;;;;;10.68;100.00;100845.47;5004067;28;20113;-80
2022/09/18 04:09:06;;;;;;;6.22;4.03;;;;;;;10.69;100.00;100847.09;5000952;28;20133;-81
2022/09/18 04:11:33;;;;;;;6.45;3.60;;;;;;;10.68;100.00;100850.69;5002699;28;20054;-82
2022/09/18 04:14:01;;;;;;;7.65;3.67;;;;;;;10.63;100.00;100843.28;5003411;28;20118;-81
2022/09/18 04:16:27;;;;;;;9.05;4.40;;;;;;;10.57;100.00;100841.28;5001364;28;20509;-80
2022/09/18 04:18:54;;;;;;;7.18;3.95;;;;;;;10.53;100.00;100832.09;5003391;28;20110;-81
2022/09/18 04:21:21;;;;;;;8.82;4.22;;;;;;;10.53;100.00;100832.09;5005880;28;20136;-81
2022/09/18 04:23:48;;;;;;;14.82;6.60;;;;;;;10.52;100.00;100831.25;5004704;28;20480;-81
2022/09/18 04:26:16;;;;;;;8.05;5.40;;;;;;;10.52;100.00;100836.50;5003934;28;20066;-81
2022/09/18 04:28:45;;;;;;;10.73;5.35;;;;;;;10.56;100.00;100831.78;5003902;28;20089;-81
2022/09/18 04:31:12;;;;;;;9.93;6.72;;;;;;;10.56;100.00;100832.59;5002592;28;20050;-80
2022/09/18 04:33:41;;;;;;;13.13;8.65;;;;;;;10.60;100.00;100841.81;5003873;28;20061;-83
2022/09/18 04:36:08;;;;;;;15.23;10.60;;;;;;;10.59;100.00;100841.94;5008879;28;20062;-81
2022/09/18 04:38:35;;;;;;;15.27;8.63;;;;;;;10.59;100.00;100840.16;5009242;28;20051;-80
2022/09/18 04:41:03;;;;;;;15.48;7.90;;;;;;;10.60;100.00;100843.59;5009971;28;20473;-81
2022/09/18 04:43:32;;;;;;;10.73;7.85;;;;;;;10.62;100.00;100845.09;5006550;28;20047;-80
2022/09/18 04:45:58;;;;;;;14.20;8.15;;;;;;;10.60;100.00;100848.84;5003375;28;20050;-80
2022/09/18 04:48:25;;;;;;;12.57;8.38;;;;;;;10.60;100.00;100840.97;5004267;28;20105;-80
2022/09/18 04:50:52;;;;;;;13.82;9.13;;;;;;;10.63;100.00;100843.28;5002679;28;20052;-80
2022/09/18 04:53:19;;;;;;;18.02;9.80;;;;;;;10.61;100.00;100846.06;5003597;28;20073;-81
2022/09/18 04:55:46;;;;;;;18.98;12.02;;;;;;;10.65;100.00;100849.19;5005845;28;20109;-81
2022/09/18 04:58:13;;;;;;;17.83;11.27;;;;;;;10.62;100.00;100847.72;5006881;28;20082;-81
2022/09/18 05:00:42;;;;;;;16.13;10.40;;;;;;;10.68;100.00;100838.44;5003414;28;20074;-80
2022/09/18 05:03:09;;;;;;;14.45;9.80;;;;;;;10.71;100.00;100839.94;4988311;28;20110;-82
2022/09/18 05:05:36;;;;;;;12.48;8.82;;;;;;;10.75;100.00;100830.81;4991319;28;20047;-81
2022/09/18 05:08:03;;;;;;;15.57;9.43;;;;;;;10.74;100.00;100835.22;4990317;28;20137;-80
2022/09/18 05:10:30;;;;;;;13.75;8.48;;;;;;;10.75;100.00;100825.56;4985054;28;20106;-80
2022/09/18 05:12:58;;;;;;;15.30;8.93;;;;;;;10.74;100.00;100822.13;4983913;28;20078;-81
2022/09/18 05:15:25;;;;;;;18.25;9.10;;;;;;;10.74;100.00;100818.69;4984408;28;20242;-81
2022/09/18 05:18:00;;;;;;;17.70;8.98;;;;;;;10.77;100.00;100832.28;5002565;28;20133;-80
2022/09/18 05:20:27;;;;;;;16.75;8.35;;;;;;;10.79;100.00;100826.91;5002440;28;20046;-80
2022/09/18 05:22:54;;;;;;;14.10;8.25;;;;;;;10.83;100.00;100821.22;5002462;28;20092;-81
2022/09/18 05:25:22;;;;;;;14.07;7.07;;;;;;;10.83;100.00;100828.25;5001011;28;20117;-79
2022/09/18 05:27:54;;;;;;;11.30;6.30;;;;;;;10.80;100.00;100825.94;4992479;28;20069;-80
2022/09/18 05:30:20;;;;;;;11.85;6.30;;;;;;;10.79;100.00;100825.13;4980714;28;20070;-78
2022/09/18 05:32:54;;;;;;;15.10;6.13;;;;;;;10.79;100.00;100826.91;4982385;28;20110;-79
2022/09/18 05:35:22;;;;;;;8.75;5.70;;;;;;;10.78;100.00;100825.25;4999159;28;20057;-79
2022/09/18 05:37:50;;;;;;;9.52;5.93;;;;;;;10.84;100.00;100833.34;4999417;28;20082;-79
2022/09/18 05:40:17;;;;;;;9.25;5.18;;;;;;;10.89;100.00;100823.19;5001345;28;20057;-82
2022/09/18 05:42:47;;;;;;;13.43;5.68;;;;;;;10.90;100.00;100824.84;5000897;28;20133;-79
2022/09/18 05:45:14;;;;;;;13.32;6.28;;;;;;;10.95;100.00;100830.44;4995998;28;20081;-78
2022/09/18 05:47:40;;;;;;;17.35;7.50;;;;;;;10.91;100.00;100823.03;4998772;28;20121;-79
2022/09/18 05:50:10;;;;;;;14.27;7.38;;;;;;;10.93;100.00;100826.34;4998451;28;20073;-79
2022/09/18 05:52:38;;;;;;;13.90;6.95;;;;;;;10.96;100.00;100834.69;5001064;28;20060;-79
2022/09/18 05:55:05;;;;;;;12.65;5.80;;;;;;;10.93;100.00;100819.31;4994868;28;20051;-78
2022/09/18 05:57:32;;;;;;;9.73;5.72;;;;;;;10.89;100.00;100827.59;4999720;28;20110;-78
2022/09/18 05:59:58;;;;;;;11.30;5.00;;;;;;;10.94;100.00;100826.19;5003512;28;20114;-79
2022/09/18 06:02:25;;;;;;;9.57;4.88;;;;;;;10.93;100.00;100826.34;4985359;28;20100;-79
2022/09/18 06:04:52;;;;;;;8.40;4.90;;;;;;;10.92;100.00;100815.03;4982306;28;20077;-79
2022/09/18 06:07:18;;;;;;;8.68;5.00;;;;;;;10.91;100.00;100831.72;4980421;28;20086;-78
2022/09/18 06:09:46;;;;;;;12.10;5.40;;;;;;;10.88;100.00;100829.41;4977334;28;20061;-79
2022/09/18 06:12:13;;;;;;;11.73;5.63;;;;;;;10.90;100.00;100829.25;4986263;28;20054;-79
2022/09/18 06:14:39;;;;;;;11.30;5.50;;;;;;;10.91;100.00;100831.72;5003824;28;20089;-79
2022/09/18 06:17:06;;;;;;;9.27;4.88;;;;;;;10.91;100.00;100836.13;4998650;28;20062;-80
2022/09/18 06:19:33;;;;;;;13.77;4.85;;;;;;;10.97;100.00;100840.75;5000561;28;20096;-79
2022/09/18 06:22:00;;;;;;;8.90;4.18;;;;;;;11.03;100.00;100834.09;4987035;28;20058;-78
2022/09/18 06:24:26;;;;;;;9.15;4.40;;;;;;;11.03;100.00;100842.78;4979435;28;20133;-78
2022/09/18 06:26:54;;;;;;;13.48;4.85;;;;;;;11.09;100.00;100844.78;4979916;28;20110;-79
2022/09/18 06:29:21;;;;;;;8.93;4.82;;;;;;;11.08;100.00;100837.06;4980238;28;20444;-80
2022/09/18 06:31:47;;;;;;;13.35;4.63;;;;;;;11.11;100.00;100847.25;4981679;28;20066;-79
2022/09/18 06:34:14;;;;;;;10.77;4.70;;;;;;;11.19;100.00;100847.31;4979936;28;20149;-80
2022/09/18 06:36:42;;;;;;;10.25;4.65;;;;;;;11.21;100.00;100837.50;4979674;28;20101;-79
2022/09/18 06:39:11;;;;;;;13.38;4.60;;;;;;;11.18;100.00;100843.84;4980209;28;20141;-79
2022/09/18 06:41:37;;;;;;;11.98;4.28;;;;;;;11.14;100.00;100845.13;4995357;28;20494;-79
2022/09/18 06:44:05;;;;;;;10.68;4.65;;;;;;;11.11;100.00;100852.47;4998283;28;20085;-78
2022/09/18 06:46:32;;;;;;;12.18;4.47;;;;;;;11.14;100.00;100846.94;4996700;28;20485;-80
2022/09/18 06:48:59;;;;;;;9.98;3.90;;;;;;;11.05;100.00;100838.19;4998642;28;20137;-80
2022/09/18 06:51:25;;;;;;;11.93;4.93;;;;;;;11.06;100.00;100833.78;5001360;28;20530;-79
2022/09/18 06:53:52;;;;;;;11.38;4.60;;;;;;;11.10;100.00;100835.13;5000795;28;20101;-80
2022/09/18 06:56:18;;;;;;;12.18;3.83;;;;;;;11.09;100.00;100833.47;4990075;28;20449;-80
2022/09/18 06:58:45;;;;;;;10.85;4.25;;;;;;;11.11;100.00;100831.53;4981856;28;20490;-79
2022/09/18 07:01:13;;;;;;;8.70;4.10;;;;;;;11.19;100.00;100840.25;4982542;28;20081;-78
2022/09/18 07:03:40;;;;;;;11.07;4.03;;;;;;;11.37;100.00;100827.06;4979965;28;20138;-79
2022/09/18 07:06:09;;;;;;;9.32;4.20;;;;;;;11.67;100.00;100836.25;4980992;28;20081;-78
2022/09/18 07:08:36;;;;;;;8.50;3.85;;;;;;;11.80;100.00;100841.06;4992316;28;20118;-79
2022/09/18 07:11:02;;;;;;;11.82;4.00;;;;;;;11.67;100.00;100840.66;5002386;28;20053;-79
2022/09/18 07:13:30;;;;;;;9.05;4.57;;;;;;;11.78;100.00;100833.38;5003315;28;20081;-79
2022/09/18 07:15:57;;;;;;;11.77;4.07;;;;;;;11.67;100.00;100833.63;4994978;28;20051;-79
2022/09/18 07:18:26;;;;;;;13.15;4.45;;;;;;;11.57;100.00;100843.41;4978467;28;20081;-80
2022/09/18 07:20:53;;;;;;;7.60;3.92;;;;;;;11.51;100.00;100834.34;4978879;28;20129;-79
2022/09/18 07:23:20;;;;;;;10.73;4.40;;;;;;;11.52;100.00;100841.25;4979315;28;20047;-79
2022/09/18 07:25:46;;;;;;;8.40;4.40;;;;;;;11.44;100.00;100829.91;4981104;28;20518;-79
2022/09/18 07:28:13;;;;;;;11.68;5.50;;;;;;;11.31;100.00;100840.81;4983734;28;20106;-81
2022/09/18 07:30:43;;;;;;;10.77;4.97;;;;;;;11.32;100.00;100826.75;4989280;28;20102;-81
2022/09/18 07:33:10;;;;;;;8.20;4.50;;;;;;;11.34;100.00;100837.06;4987045;28;20043;-82
2022/09/18 07:35:39;;;;;;;9.90;4.40;;;;;;;11.43;100.00;100836.94;4985820;28;20160;-79
2022/09/18 07:38:06;;;;;;;9.10;4.57;;;;;;;11.55;100.00;100819.16;4982943;28;20074;-80
2022/09/18 07:40:40;;;;;;;11.18;4.95;;;;;;;11.45;100.00;100829.75;4983650;28;20094;-80
2022/09/18 07:43:10;;;;;;;12.20;4.00;;;;;;;11.62;100.00;100834.09;4984627;28;20110;-81
2022/09/18 07:45:37;;;;;;;10.05;4.07;;;;;;;11.67;100.00;100841.47;4988216;28;20065;-80
2022/09/18 07:48:06;;;;;;;8.05;4.75;;;;;;;11.65;100.00;100840.81;4982466;28;20062;-79
2022/09/18 07:50:33;;;;;;;8.75;3.80;;;;;;;11.71;100.00;100834.94;4983376;28;20122;-79
2022/09/18 07:53:04;;;;;;;11.40;3.90;;;;;;;12.01;100.00;100830.97;4983652;28;20188;-80
2022/09/18 07:55:31;;;;;;;6.93;3.60;;;;;;;12.64;100.00;100838.25;4982755;28;20106;-80
2022/09/18 07:57:59;;;;;;;7.15;3.65;;;;;;;12.52;100.00;100823.81;4984755;28;20126;-79
2022/09/18 08:00:28;;;;;;;7.22;3.00;;;;;;;12.61;100.00;100836.78;4990161;28;20488;-80
2022/09/18 08:03:01;;;;;;;5.93;3.30;;;;;;;12.46;100.00;100834.97;4979007;28;20121;-80
2022/09/18 08:05:27;;;;;;;6.95;3.67;;;;;;;12.40;99.82;100840.84;4980855;28;20061;-78
2022/09/18 08:07:54;;;;;;;6.75;3.53;;;;;;;12.40;100.00;100830.34;4979404;28;20053;-80
2022/09/18 08:10:22;;;;;;;8.25;3.60;;;;;;;12.45;100.00;100833.31;4981681;28;20078;-80
2022/09/18 08:12:53;;;;;;;7.90;3.95;;;;;;;12.50;100.00;100836.28;4999608;28;20054;-79
2022/09/18 08:15:20;;;;;;;6.32;3.65;;;;;;;12.56;100.00;100835.63;4994402;28;20129;-79
2022/09/18 08:17:51;;;;;;;10.65;3.45;;;;;;;12.64;99.92;100822.50;5001146;28;20054;-79
2022/09/18 08:20:18;;;;;;;6.57;3.20;;;;;;;12.72;98.74;100826.94;4999516;28;20050;-80
2022/09/18 08:22:45;;;;;;;7.55;3.38;;;;;;;12.85;98.58;100827.22;4998129;28;20115;-80
2022/09/18 08:25:12;;;;;;;6.93;3.05;;;;;;;12.81;97.98;100834.63;4997591;28;20053;-79
2022/09/18 08:27:41;;;;;;;8.13;3.15;;;;;;;13.00;98.26;100830.00;5021040;23;20231;-80
2022/09/18 08:30:10;;;;;;;5.18;3.20;;;;;;;12.86;97.12;100829.69;4985912;28;20590;-80
2022/09/18 08:32:37;;;;;;;11.38;3.78;;;;;;;12.89;97.26;100829.34;4994421;28;20093;-81
2022/09/18 08:35:06;;;;;;;6.00;3.70;;;;;;;12.90;96.70;100831.00;4994461;28;20058;-79
2022/09/18 08:37:33;;;;;;;9.13;4.30;;;;;;;12.65;97.58;100832.03;4958868;29;20133;-78
2022/09/18 08:40:00;;;;;;;6.28;4.22;;;;;;;12.83;98.01;100839.69;4943696;28;20090;-77
2022/09/18 08:42:35;;;;;;;10.32;4.43;;;;;;;12.72;99.11;100850.56;4937383;29;20062;-79
2022/09/18 08:45:09;;;;;;;7.80;5.20;;;;;;;12.49;98.45;100839.88;4940981;29;20051;-80
2022/09/18 08:47:42;;;;;;;7.90;5.78;;;;;;;12.41;100.00;100838.06;4959734;29;20065;-80
2022/09/18 08:50:16;;;;;;;9.48;6.43;;;;;;;12.46;100.00;100843.66;4951359;28;20062;-79
2022/09/18 08:52:48;;;;;;;11.82;7.22;;;;;;;12.38;100.00;100838.38;4939995;29;20543;-79
2022/09/18 08:55:23;;;;;;;14.88;8.75;;;;;;;12.37;100.00;100835.94;4940511;28;20083;-79
2022/09/18 08:57:54;;;;;;;11.23;7.50;;;;;;;12.49;100.00;100834.63;4938956;29;20059;-76
2022/09/18 09:00:27;;;;;;;11.85;7.40;;;;;;;12.93;100.00;100838.53;4941497;29;20478;-80
2022/09/18 09:03:00;;;;;;;9.05;6.03;;;;;;;12.97;99.80;100831.16;4946743;28;20131;-79
2022/09/18 09:05:30;;;;;;;;;;;;;;;13.04;98.99;100840.03;4944371;28;20090;-79
2022/09/18 09:08:36;;;;;;;12.80;6.40;;;;;;;12.95;98.78;100844.47;4962158;28;19922;-79
2022/09/18 09:11:16;;;;;;;7.38;5.38;;;;;;;12.73;99.19;100847.78;4958423;28;20070;-80
2022/09/18 09:14:07;;;;;;;7.40;4.95;;;;;;;12.60;99.66;100839.56;4962390;29;20115;-79
2022/09/18 09:16:42;;;;;;;7.60;4.75;;;;;;;12.57;100.00;100839.88;4960148;28;20123;-78
2022/09/18 09:19:24;;;;;;;8.68;4.90;;;;;;;12.43;100.00;100836.09;4958381;29;20134;-78
2022/09/18 09:21:57;;;;;;;8.23;5.30;;;;;;;12.50;100.00;100836.28;4963343;28;20117;-77
2022/09/18 09:24:31;;;;;;;7.15;3.72;;;;;;;12.26;100.00;100848.41;4962867;29;20051;-78
2022/09/18 09:26:59;;;;;;;7.70;4.75;;;;;;;11.89;100.00;100842.72;4957841;28;20138;-78
2022/09/18 09:29:29;;;;;;;8.57;5.38;;;;;;;11.81;100.00;100840.09;4958640;28;20496;-79
2022/09/18 09:32:00;;;;;;;10.23;6.40;;;;;;;11.92;100.00;100834.53;4957989;28;20066;-78
2022/09/18 09:34:31;;;;;;;10.20;6.10;;;;;;;12.04;100.00;100838.50;4940761;29;20506;-78
2022/09/18 09:37:02;;;;;;;8.57;5.15;;;;;;;12.20;100.00;100851.66;4939877;29;20083;-77
2022/09/18 09:39:35;;;;;;;10.38;5.22;;;;;;;12.26;100.00;100834.47;4937135;29;20051;-77
2022/09/18 09:42:07;;;;;;;8.07;5.03;;;;;;;12.30;100.00;100831.31;4936877;29;20479;-77
2022/09/18 09:44:39;;;;;;;10.73;4.90;;;;;;;12.25;100.00;100828.41;4936424;29;20502;-77
2022/09/18 09:47:21;;;;;;;7.37;4.57;;;;;;;12.71;100.00;100827.91;4936898;29;20087;-75
2022/09/18 09:49:59;;;;;;;7.15;4.88;;;;;;;13.11;100.00;100813.91;4935982;29;20366;-77
2022/09/18 09:52:29;;;;;;;7.18;4.63;;;;;;;13.55;99.64;100822.97;4936501;29;20568;-76
2022/09/18 09:54:57;;;;;;;5.32;3.63;;;;;;;13.42;97.76;100817.44;4938546;29;20511;-77
2022/09/18 09:57:30;;;;;;;7.78;3.80;;;;;;;13.36;95.96;100807.59;4951022;29;20054;-75
2022/09/18 10:00:06;;;;;;;9.77;3.80;;;;;;;13.61;96.06;100810.97;4954754;29;20061;-76
2022/09/18 10:02:46;;;;;;;7.22;4.00;;;;;;;13.31;95.01;100799.41;4936422;29;20091;-77
2022/09/18 10:05:25;;;;;;;9.05;3.88;;;;;;;13.13;94.53;100802.25;4936311;29;20091;-77
2022/09/18 10:08:00;;;;;;;4.95;3.58;;;;;;;12.91;95.61;100789.78;4941485;29;20541;-77
2022/09/18 10:10:35;;;;;;;8.38;3.95;;;;;;;12.86;95.14;100800.81;4969839;28;20082;-76
2022/09/18 10:13:12;;;;;;;4.82;3.30;;;;;;;12.69;95.72;100796.56;4936507;29;20111;-77
2022/09/18 10:15:48;;;;;;;7.00;3.58;;;;;;;12.57;94.07;100782.13;4938201;28;20075;-77
2022/09/18 10:18:26;;;;;;;9.73;3.83;;;;;;;12.73;93.19;100794.44;4961253;28;20046;-78
2022/09/18 10:21:03;;;;;;;5.93;3.25;;;;;;;12.89;93.11;100810.97;4941373;29;20058;-76
2022/09/18 10:23:37;;;;;;;8.95;3.78;;;;;;;12.68;92.56;100794.94;4940438;29;20138;-76
2022/09/18 10:26:04;;;;;;;8.95;3.97;;;;;;;12.59;93.11;100803.78;4937391;29;20055;-76
2022/09/18 10:28:32;;;;;;;5.00;3.67;;;;;;;12.50;94.17;100786.41;4937982;28;20063;-77
2022/09/18 10:31:02;;;;;;;7.28;3.78;;;;;;;12.41;95.25;100808.38;4967965;28;20565;-76
2022/09/18 10:33:36;;;;;;;5.88;3.47;;;;;;;12.23;96.07;100804.13;4935953;29;20052;-77
2022/09/18 10:36:12;;;;;;;5.65;3.80;;;;;;;12.23;96.99;100798.88;4935101;29;20080;-76
2022/09/18 10:38:42;;;;;;;6.78;3.80;;;;;;;12.35;98.09;100796.72;4935731;28;20548;-77
2022/09/18 10:41:34;;;;;;;6.28;4.07;;;;;;;12.47;97.20;100794.59;4934618;29;20059;-76
2022/09/18 10:44:20;;;;;;;6.32;3.97;;;;;;;12.63;96.43;100778.84;4939230;29;20095;-76
2022/09/18 10:46:57;;;;;;;4.78;3.60;;;;;;;12.69;94.99;100793.94;4938263;29;20067;-77
2022/09/18 10:49:31;;;;;;;7.50;3.58;;;;;;;12.53;94.35;100797.41;4954696;28;20057;-78
2022/09/18 10:52:26;;;;;;;4.65;3.80;;;;;;;12.30;95.66;100781.47;4956620;28;20596;-78
2022/09/18 10:55:24;;;;;;;5.50;4.18;;;;;;;12.28;95.85;100790.53;4958046;28;20055;-77
2022/09/18 10:58:07;;;;;;;4.57;3.67;;;;;;;12.45;96.64;100801.81;4949080;28;20063;-77
2022/09/18 11:00:39;;;;;;;5.22;3.70;;;;;;;12.43;96.25;100788.88;4952374;28;20055;-77
2022/09/18 11:03:21;;;;;;;;;;;;;;;12.44;96.61;100780.00;4945097;29;20051;-76
2022/09/18 11:06:19;;;;;;;;;;;;;;;;;;;;;
2022/09/18 11:20:01;;;;;;;5.10;3.22;;;;;;;12.55;98.42;100769.19;5061385;23;20070;-79
2022/09/18 11:55:07;;;;;;;;;;;;;;;;;;;;;
2022/09/18 11:58:22;;;;;;;;;;;;;;;;;;;;;
2022/09/18 12:15:39;;;;;;;7.53;3.90;;;;;;;13.60;96.06;100731.28;4903287;29;20138;-80
2022/09/18 12:19:21;;;;;;;10.35;4.50;;;;;;;13.63;93.58;100750.31;4882062;29;20085;-79
2022/09/18 12:22:47;;;;;;;;;;;;;;;;;;;;;
2022/09/18 12:26:14;;;;;;;7.28;4.03;;;;;;;13.49;92.57;100726.41;4902971;28;20173;-80
2022/09/18 12:35:49;;;;;;;7.88;4.32;;;;;;;13.83;91.57;100754.94;4979193;28;20057;-78
2022/09/18 12:38:31;;;;;;;5.97;4.15;;;;;;;13.65;91.32;100772.00;4997008;28;20051;-78
2022/09/18 12:41:16;;;;;;;9.88;4.43;;;;;;;13.57;91.56;100759.72;4977183;28;20641;-78
2022/09/18 12:44:00;;;;;;;9.52;4.43;;;;;;;13.40;93.68;100742.38;4978212;28;20158;-78
2022/09/18 12:46:56;;;;;;;10.30;5.00;;;;;;;12.99;95.57;100713.59;4975879;28;20501;-77
2022/09/18 12:49:50;;;;;;;6.35;4.63;;;;;;;12.68;98.68;100718.81;4980763;28;20051;-77
2022/09/18 12:52:33;;;;;;;9.32;4.78;;;;;;;12.54;100.00;100727.34;4975669;28;20208;-77